Time;durP1;ratioP1;P1;durP2;ratioP2;P2;SDS_P1;SDS_P2;PMS_P1;PMS_P2;Temp;Humidity;BMP_temperature;BMP_pressure;BME280_temperature;BME280_humidity;BME280_pressure;Samples;Min_cycle;Max_cycle;Signal;HPM_P1;HPM_P2
2022/11/05 00:16:42;;;;;;;2.43;1.03;;;;;;;6.82;83.64;97121.09;6239886;28;20772;-64
2022/11/05 00:18:06;;;;;;;0.70;0.70;;;;;;;6.78;83.22;97124.91;6247616;28;20706;-65
2022/11/05 00:25:12;;;;;;;0.70;0.70;;;;;;;6.78;82.96;97145.91;6242358;28;20222;-64
2022/11/05 00:27:52;;;;;;;2.60;0.70;;;;;;;6.83;82.98;97167.38;6254146;28;20312;-64
2022/11/05 00:31:00;;;;;;;0.83;0.70;;;;;;;6.88;82.26;97153.94;6227962;28;20336;-64
2022/11/05 00:34:02;;;;;;;1.23;0.80;;;;;;;6.92;82.13;97163.22;6225072;28;20231;-65
2022/11/05 00:37:04;;;;;;;3.40;1.07;;;;;;;6.93;82.16;97159.66;6244083;28;20591;-65
2022/11/05 00:40:08;;;;;;;1.17;1.07;;;;;;;6.95;81.97;97178.75;6243438;28;20226;-65
2022/11/05 00:46:31;;;;;;;1.00;0.67;;;;;;;7.00;81.46;97189.72;6240509;28;20228;-63
2022/11/05 00:49:33;;;;;;;4.33;0.70;;;;;;;7.05;81.48;97205.97;6243237;28;20236;-64
2022/11/05 00:52:54;;;;;;;3.40;0.90;;;;;;;7.06;81.36;97194.53;6251098;28;20235;-65
2022/11/05 00:55:56;;;;;;;0.93;0.70;;;;;;;7.09;80.37;97186.41;6230319;28;20325;-66
2022/11/05 00:58:58;;;;;;;1.37;0.70;;;;;;;7.11;80.46;97197.63;6252594;28;20602;-64
2022/11/05 01:02:00;;;;;;;1.40;0.70;;;;;;;7.14;80.35;97183.47;6247283;28;20309;-64
2022/11/05 01:05:03;;;;;;;1.67;0.77;;;;;;;7.19;80.11;97194.44;6244323;28;20231;-64
2022/11/05 01:08:05;;;;;;;0.60;0.60;;;;;;;7.19;80.34;97186.56;6227289;28;20604;-66
2022/11/05 01:11:31;;;;;;;1.10;0.80;;;;;;;7.21;80.00;97192.53;6247967;28;20241;-65
2022/11/05 01:14:34;;;;;;;1.90;0.70;;;;;;;7.19;80.90;97218.06;6228664;28;20239;-65
2022/11/05 01:17:36;;;;;;;2.47;0.73;;;;;;;7.19;80.53;97250.38;6231941;28;20310;-65
2022/11/05 01:20:39;;;;;;;2.03;0.90;;;;;;;7.21;81.15;97260.78;6244725;28;20313;-64
2022/11/05 01:23:41;;;;;;;0.70;0.70;;;;;;;7.18;81.50;97254.00;6240770;28;20723;-65
2022/11/05 01:26:43;;;;;;;1.00;0.70;;;;;;;7.13;81.73;97221.16;6244279;28;20238;-65
2022/11/05 01:29:45;;;;;;;1.00;0.70;;;;;;;7.06;81.93;97206.81;6232249;28;20703;-64
2022/11/05 01:32:47;;;;;;;1.00;0.70;;;;;;;7.04;81.82;97206.91;6228342;28;20231;-65
2022/11/05 01:35:50;;;;;;;1.50;1.00;;;;;;;7.04;81.86;97194.66;6227135;28;20643;-66
2022/11/05 01:38:52;;;;;;;1.10;0.90;;;;;;;7.06;81.63;97202.41;6248773;28;20243;-64
2022/11/05 01:41:54;;;;;;;0.83;0.83;;;;;;;7.10;81.40;97189.88;6238231;28;20639;-65
2022/11/05 01:45:02;;;;;;;0.90;0.90;;;;;;;7.10;81.04;97197.75;6240100;28;20321;-65
2022/11/05 01:48:14;;;;;;;1.30;0.97;;;;;;;7.04;81.74;97220.88;6249119;28;20600;-65
2022/11/05 01:51:21;;;;;;;0.70;0.67;;;;;;;6.97;81.84;97230.16;6234585;28;20286;-64
2022/11/05 01:54:28;;;;;;;1.30;0.77;;;;;;;6.91;82.73;97241.06;6231370;28;20262;-64
2022/11/05 01:57:31;;;;;;;1.23;0.87;;;;;;;6.82;83.67;97241.75;6219849;28;20234;-65
2022/11/05 02:00:35;;;;;;;1.53;1.00;;;;;;;6.81;84.03;97239.22;6250390;28;20308;-64
2022/11/05 02:03:38;;;;;;;1.00;0.87;;;;;;;6.81;83.39;97234.81;6231452;28;20703;-65
2022/11/05 02:06:44;;;;;;;1.00;0.87;;;;;;;6.79;83.05;97228.84;6248008;28;20229;-64
2022/11/05 02:09:51;;;;;;;0.93;0.73;;;;;;;6.73;84.49;97231.91;6235542;28;20632;-64
2022/11/05 02:12:53;;;;;;;0.97;0.80;;;;;;;6.70;84.46;97234.75;6249816;28;20705;-64
2022/11/05 02:16:18;;;;;;;1.60;0.80;;;;;;;6.72;84.27;97225.00;6246841;28;20681;-64
2022/11/05 02:19:53;;;;;;;3.30;1.10;;;;;;;6.75;83.76;97243.16;6219302;28;20721;-64
2022/11/05 02:23:10;;;;;;;1.90;0.97;;;;;;;6.75;83.95;97216.09;6254034;28;20316;-64
2022/11/05 02:26:35;;;;;;;1.47;0.80;;;;;;;6.76;83.09;97223.00;6239992;28;20259;-64
2022/11/05 02:29:49;;;;;;;2.00;0.90;;;;;;;6.76;83.00;97217.75;6239983;28;20260;-65
2022/11/05 02:33:19;;;;;;;1.07;0.97;;;;;;;6.76;82.59;97229.09;6244704;28;20744;-64
2022/11/05 02:36:37;;;;;;;0.90;0.50;;;;;;;6.63;83.81;97229.13;6232920;28;20239;-65
2022/11/05 02:39:50;;;;;;;1.50;0.80;;;;;;;6.60;83.82;97228.50;6242030;28;20262;-64
2022/11/05 02:42:52;;;;;;;0.77;0.70;;;;;;;6.65;82.94;97235.09;6245813;28;20246;-64
2022/11/05 02:45:54;;;;;;;2.70;0.70;;;;;;;6.67;82.95;97232.38;6240341;28;20775;-65
2022/11/05 02:49:17;;;;;;;1.33;0.60;;;;;;;6.75;81.96;97234.44;6241603;28;20225;-65
2022/11/05 02:52:41;;;;;;;0.90;0.77;;;;;;;6.77;81.58;97222.06;6228141;28;20261;-64
2022/11/05 02:55:52;;;;;;;2.17;1.13;;;;;;;6.81;81.02;97219.09;6225941;28;20367;-64
2022/11/05 02:58:54;;;;;;;1.43;0.90;;;;;;;6.83;80.93;97218.97;6231822;28;20574;-64
2022/11/05 03:01:58;;;;;;;1.50;0.80;;;;;;;6.89;80.58;97227.22;6232477;28;20227;-65
2022/11/05 03:05:01;;;;;;;1.47;0.87;;;;;;;6.86;81.29;97226.63;6244617;28;20223;-64
2022/11/05 03:08:15;;;;;;;1.30;0.97;;;;;;;6.85;81.43;97241.53;6242215;28;20305;-64
2022/11/05 03:11:21;;;;;;;0.73;0.73;;;;;;;6.79;81.89;97244.59;6248357;28;20232;-65
2022/11/05 03:14:26;;;;;;;1.40;0.80;;;;;;;6.65;82.40;97245.59;6243016;28;20236;-65
2022/11/05 03:18:03;;;;;;;2.40;1.00;;;;;;;6.72;82.80;97237.28;6242307;28;20607;-65
2022/11/05 03:21:16;;;;;;;2.07;1.10;;;;;;;6.69;83.00;97242.75;6237186;28;20710;-65
2022/11/05 03:24:24;;;;;;;1.23;1.00;;;;;;;6.65;83.62;97242.13;6220121;28;20246;-65
2022/11/05 03:27:30;;;;;;;1.10;0.90;;;;;;;6.58;84.46;97238.28;6234015;28;20358;-64
2022/11/05 03:30:36;;;;;;;1.23;1.00;;;;;;;6.55;84.72;97244.56;6246698;28;20217;-65
2022/11/05 03:33:40;;;;;;;1.57;1.30;;;;;;;6.59;84.63;97245.16;6224524;28;20269;-65
2022/11/05 03:36:51;;;;;;;3.67;1.57;;;;;;;6.73;83.47;97252.06;6240872;28;20216;-65
2022/11/05 03:39:57;;;;;;;1.17;1.03;;;;;;;6.83;83.49;97255.69;6240820;28;20226;-65
2022/11/05 03:43:02;;;;;;;1.57;0.90;;;;;;;6.86;82.15;97251.06;6240052;28;20235;-66
2022/11/05 03:46:31;;;;;;;2.23;1.07;;;;;;;6.86;83.09;97252.88;6246351;28;20384;-65
2022/11/05 03:49:39;;;;;;;1.07;0.83;;;;;;;6.84;82.58;97247.72;6242521;28;20664;-64
2022/11/05 03:52:51;;;;;;;1.17;1.00;;;;;;;6.82;82.99;97254.03;6246862;28;20732;-65
2022/11/05 03:56:18;;;;;;;1.83;1.20;;;;;;;6.80;83.02;97245.41;6220741;28;20250;-65
2022/11/05 03:59:21;;;;;;;1.13;0.90;;;;;;;6.75;83.64;97232.66;6239277;28;20560;-64
2022/11/05 04:02:25;;;;;;;1.33;1.20;;;;;;;6.80;83.01;97225.28;6241466;28;20242;-64
2022/11/05 04:05:27;;;;;;;1.43;1.20;;;;;;;6.84;82.75;97226.75;6249404;28;20242;-66
2022/11/05 04:15:10;;;;;;;1.57;1.47;;;;;;;6.87;82.09;97217.81;6238630;28;20259;-64
2022/11/05 04:18:12;;;;;;;1.70;1.50;;;;;;;6.84;82.88;97225.91;6223826;28;20212;-66
2022/11/05 04:24:35;;;;;;;1.33;1.20;;;;;;;6.75;83.54;97234.44;6228155;28;20641;-64
2022/11/05 04:27:37;;;;;;;1.83;1.10;;;;;;;6.71;84.05;97244.28;6229135;28;20234;-65
2022/11/05 04:30:40;;;;;;;1.40;1.17;;;;;;;6.72;83.41;97247.75;6232341;28;20237;-64
2022/11/05 04:33:42;;;;;;;2.23;1.40;;;;;;;6.73;83.72;97259.94;6214371;28;20726;-65
2022/11/05 04:36:45;;;;;;;4.07;2.17;;;;;;;6.74;83.62;97272.09;6245650;28;20328;-65
2022/11/05 04:39:47;;;;;;;1.83;1.30;;;;;;;6.70;83.56;97262.75;6254479;28;20223;-64
2022/11/05 04:42:49;;;;;;;1.80;1.70;;;;;;;6.67;84.76;97269.09;6247190;28;20231;-65
2022/11/05 04:45:51;;;;;;;5.97;2.13;;;;;;;6.69;84.06;97280.28;6227270;28;20737;-64
2022/11/05 04:48:53;;;;;;;1.80;1.50;;;;;;;6.66;84.29;97299.72;6232397;28;20235;-64
2022/11/05 04:51:55;;;;;;;3.40;1.63;;;;;;;6.68;84.24;97306.63;6246746;28;20296;-64
2022/11/05 04:54:58;;;;;;;2.90;1.60;;;;;;;6.69;84.16;97324.84;6249851;28;20235;-64
2022/11/05 04:58:00;;;;;;;2.33;2.13;;;;;;;6.68;84.89;97328.44;6239716;28;20883;-65
2022/11/05 05:01:02;;;;;;;2.90;1.77;;;;;;;6.64;84.88;97322.56;6234600;28;20245;-66
2022/11/05 05:04:04;;;;;;;1.70;1.53;;;;;;;6.63;85.02;97325.28;6243122;28;20694;-64
2022/11/05 05:07:06;;;;;;;1.80;1.20;;;;;;;6.59;85.09;97313.34;6250429;28;20307;-65
2022/11/05 05:10:09;;;;;;;2.00;1.60;;;;;;;6.55;85.71;97315.34;6227471;28;20338;-65
2022/11/05 05:13:11;;;;;;;3.13;1.40;;;;;;;6.51;86.13;97315.66;6233321;28;20243;-65
2022/11/05 05:16:25;;;;;;;1.77;1.67;;;;;;;6.51;85.98;97318.28;6221876;28;20249;-64
2022/11/05 05:19:28;;;;;;;3.37;1.70;;;;;;;6.54;86.04;97321.53;6240377;28;20395;-64
2022/11/05 05:22:30;;;;;;;4.13;1.83;;;;;;;6.56;85.96;97319.66;6247338;28;20701;-65
2022/11/05 05:25:32;;;;;;;2.63;1.70;;;;;;;6.55;86.11;97310.09;6248787;28;20235;-64
2022/11/05 05:28:34;;;;;;;3.30;1.70;;;;;;;6.58;86.00;97323.00;6244188;28;20244;-65
2022/11/05 05:31:37;;;;;;;2.93;1.83;;;;;;;6.63;85.24;97333.16;6235693;28;20317;-65
2022/11/05 05:34:39;;;;;;;2.30;1.70;;;;;;;6.69;84.68;97345.81;6230314;28;20228;-65
2022/11/05 05:37:41;;;;;;;2.43;1.53;;;;;;;6.72;84.57;97348.25;6243591;28;20235;-65
2022/11/05 05:40:43;;;;;;;1.87;1.60;;;;;;;6.68;84.78;97349.44;6243251;28;20234;-64
2022/11/05 05:43:46;;;;;;;3.57;2.30;;;;;;;6.57;85.53;97357.19;6254205;28;20369;-66
2022/11/05 05:46:48;;;;;;;3.30;1.70;;;;;;;6.56;85.87;97358.97;6236830;28;20281;-64
2022/11/05 05:49:50;;;;;;;1.97;1.70;;;;;;;6.56;85.98;97368.63;6234627;23;20286;-41
2022/11/05 05:52:52;;;;;;;3.23;2.20;;;;;;;6.54;86.15;97368.72;6249675;28;20774;-41
2022/11/05 05:55:56;;;;;;;2.50;2.30;;;;;;;6.59;85.58;97365.75;6244289;28;20266;-42
2022/11/05 05:58:58;;;;;;;3.00;2.00;;;;;;;6.60;85.64;97380.56;6248246;28;20241;-41
2022/11/05 06:02:00;;;;;;;2.90;1.97;;;;;;;6.60;86.04;97370.06;6246503;28;20233;-42
2022/11/05 06:05:03;;;;;;;2.87;2.13;;;;;;;6.62;85.33;97370.81;6243156;28;20328;-41
2022/11/05 06:08:05;;;;;;;4.20;2.90;;;;;;;6.65;86.54;97375.84;6242525;28;20490;-41
2022/11/05 06:11:07;;;;;;;4.23;2.10;;;;;;;6.68;85.53;97377.44;6242547;28;20325;-42
2022/11/05 06:14:11;;;;;;;2.50;2.27;;;;;;;6.68;85.83;97382.66;6243394;28;20249;-42
2022/11/05 06:17:13;;;;;;;5.37;3.10;;;;;;;6.68;86.34;97380.88;6241907;28;20390;-41
2022/11/05 06:20:16;;;;;;;3.20;2.50;;;;;;;6.71;85.87;97387.69;6243250;28;20228;-41
2022/11/05 06:23:18;;;;;;;3.83;2.90;;;;;;;6.75;86.20;97390.00;6238852;28;20321;-41
2022/11/05 06:26:20;;;;;;;2.57;2.37;;;;;;;6.82;85.24;97393.03;6242396;28;20221;-41
2022/11/05 06:29:22;;;;;;;4.00;3.13;;;;;;;6.86;84.87;97405.00;6247409;28;20313;-42
2022/11/05 06:32:24;;;;;;;2.93;2.63;;;;;;;6.90;84.93;97416.94;6242801;28;20239;-41
2022/11/05 06:35:26;;;;;;;3.67;3.03;;;;;;;6.94;83.91;97421.88;6242225;28;20230;-43
2022/11/05 06:38:31;;;;;;;5.77;3.37;;;;;;;6.98;84.11;97427.75;6238956;28;20228;-42
2022/11/05 06:41:34;;;;;;;3.30;3.00;;;;;;;7.04;84.60;97433.41;6241067;28;20845;-41
2022/11/05 06:44:56;;;;;;;3.33;2.70;;;;;;;7.05;84.18;97434.25;6240036;28;20250;-42
2022/11/05 06:47:58;;;;;;;2.93;2.17;;;;;;;7.07;84.44;97429.72;6248826;28;20351;-44
2022/11/05 06:51:01;;;;;;;6.03;3.40;;;;;;;7.09;84.67;97440.13;6265513;28;20312;-41
2022/11/05 06:54:03;;;;;;;4.97;3.20;;;;;;;7.12;83.70;97445.13;6264026;28;20229;-41
2022/11/05 06:57:08;;;;;;;3.73;3.20;;;;;;;7.16;83.28;97446.59;6266961;28;20221;-41
2022/11/05 07:00:11;;;;;;;3.93;3.00;;;;;;;7.22;83.54;97447.00;6269349;28;20512;-41
2022/11/05 07:03:13;;;;;;;3.23;2.67;;;;;;;7.29;82.68;97456.13;6267253;28;20230;-41
2022/11/05 07:06:16;;;;;;;4.03;2.90;;;;;;;7.33;82.05;97460.22;6263184;28;20231;-41
2022/11/05 07:09:18;;;;;;;2.90;2.60;;;;;;;7.41;81.27;97465.75;6267548;28;20228;-41
2022/11/05 07:12:20;;;;;;;4.07;2.63;;;;;;;7.46;81.20;97457.56;6263404;28;20624;-42
2022/11/05 07:15:22;;;;;;;4.33;2.50;;;;;;;7.52;81.63;97470.25;6265022;28;20246;-41
2022/11/05 07:18:24;;;;;;;3.13;2.70;;;;;;;7.52;80.99;97466.78;6263900;28;20657;-41
2022/11/05 07:21:27;;;;;;;3.10;2.67;;;;;;;7.60;80.88;97473.16;6254710;28;20256;-41
2022/11/05 07:24:29;;;;;;;4.67;2.77;;;;;;;7.67;81.01;97469.16;6266214;28;20255;-41
2022/11/05 07:27:37;;;;;;;3.30;2.70;;;;;;;7.72;80.02;97472.28;6264445;28;20231;-41
2022/11/05 07:30:39;;;;;;;5.87;3.37;;;;;;;7.71;79.90;97454.00;6266617;28;20265;-41
2022/11/05 07:33:41;;;;;;;7.13;3.37;;;;;;;7.77;79.54;97471.97;6262053;28;20308;-41
2022/11/05 07:36:43;;;;;;;4.93;3.20;;;;;;;7.81;79.45;97464.69;6265509;28;20237;-43
2022/11/05 07:39:45;;;;;;;6.77;3.33;;;;;;;7.91;79.02;97482.28;6267222;28;20231;-41
2022/11/05 07:42:50;;;;;;;4.73;2.97;;;;;;;8.00;79.51;97483.41;6264647;28;20256;-41
2022/11/05 07:45:52;;;;;;;2.90;2.60;;;;;;;8.05;79.80;97489.19;6264413;28;20731;-42
2022/11/05 07:48:54;;;;;;;3.30;2.63;;;;;;;8.11;78.89;97492.19;6264330;28;20247;-42
2022/11/05 07:51:56;;;;;;;5.27;2.93;;;;;;;8.17;78.65;97487.44;6264412;28;20651;-42
2022/11/05 07:54:59;;;;;;;6.77;2.93;;;;;;;8.19;78.52;97494.25;6266494;28;20223;-41
2022/11/05 07:58:01;;;;;;;3.50;2.80;;;;;;;8.27;77.91;97488.44;6263037;28;20233;-42
2022/11/05 08:01:05;;;;;;;4.03;2.80;;;;;;;8.34;77.94;97490.53;6265043;28;20317;-42
2022/11/05 08:04:08;;;;;;;4.60;3.03;;;;;;;8.46;77.28;97484.38;6267049;28;20229;-42
2022/11/05 08:07:10;;;;;;;3.47;2.77;;;;;;;8.54;76.60;97485.56;6257732;28;20304;-41
2022/11/05 08:10:12;;;;;;;3.83;3.00;;;;;;;8.59;76.70;97486.03;6263149;28;20282;-41
2022/11/05 08:13:14;;;;;;;4.77;2.90;;;;;;;8.63;75.74;97477.81;6263142;28;20277;-41
2022/11/05 08:16:17;;;;;;;3.83;2.50;;;;;;;8.64;75.04;97487.38;6264408;28;20227;-42
2022/11/05 08:19:19;;;;;;;6.93;2.70;;;;;;;8.70;75.13;97491.34;6264667;28;20246;-41
2022/11/05 08:22:21;;;;;;;4.97;2.47;;;;;;;8.76;74.92;97498.78;6265638;28;20229;-41
2022/11/05 08:25:24;;;;;;;4.67;2.50;;;;;;;8.79;74.75;97494.09;6260094;28;20323;-42
2022/11/05 08:28:26;;;;;;;6.30;2.57;;;;;;;8.82;74.95;97495.69;6267496;28;20383;-43
2022/11/05 08:31:29;;;;;;;3.43;2.70;;;;;;;8.87;75.16;97504.06;6263059;28;20280;-41
2022/11/05 08:34:32;;;;;;;5.53;2.67;;;;;;;8.91;75.52;97491.50;6263862;28;20257;-41
2022/11/05 08:37:34;;;;;;;3.70;2.73;;;;;;;8.91;74.89;97489.72;6263523;28;20228;-41
2022/11/05 08:40:36;;;;;;;4.33;2.90;;;;;;;8.92;74.51;97493.19;6267332;28;20270;-42
2022/11/05 08:43:38;;;;;;;4.00;2.97;;;;;;;8.98;73.87;97495.34;6264048;28;20231;-42
2022/11/05 08:46:40;;;;;;;3.73;2.37;;;;;;;9.06;74.20;97508.75;6263055;28;20263;-41
2022/11/05 08:49:43;;;;;;;10.17;3.00;;;;;;;9.14;73.88;97501.09;6222739;28;20228;-41
2022/11/05 08:52:45;;;;;;;3.70;2.77;;;;;;;9.29;73.75;97526.22;6215862;28;20261;-41
2022/11/05 08:55:48;;;;;;;4.87;2.67;;;;;;;9.40;73.22;97513.06;6218881;28;20236;-42
2022/11/05 08:58:51;;;;;;;3.67;2.27;;;;;;;9.60;72.24;97509.72;6216284;28;20229;-43
2022/11/05 09:01:54;;;;;;;7.43;2.60;;;;;;;9.66;70.35;97518.94;6205963;28;20245;-41
2022/11/05 09:04:56;;;;;;;3.00;2.33;;;;;;;9.66;71.07;97512.84;6216459;28;20284;-42
2022/11/05 09:07:59;;;;;;;3.40;2.23;;;;;;;9.67;70.93;97525.91;6216355;28;20707;-41
2022/11/05 09:11:02;;;;;;;3.37;2.23;;;;;;;9.74;70.97;97511.25;6216333;28;20238;-41
2022/11/05 09:14:04;;;;;;;4.00;2.43;;;;;;;9.89;70.42;97512.66;6214024;28;20235;-42
2022/11/05 09:17:20;;;;;;;5.00;3.03;;;;;;;9.84;69.84;97514.84;6215734;28;20297;-41
2022/11/05 09:20:23;;;;;;;3.27;2.50;;;;;;;9.91;70.24;97523.09;6218431;28;20229;-43
2022/11/05 09:23:25;;;;;;;4.50;2.90;;;;;;;9.85;69.86;97527.06;6219640;28;20340;-41
2022/11/05 09:26:27;;;;;;;4.70;2.77;;;;;;;9.88;69.62;97531.25;6216730;28;20373;-42
2022/11/05 09:29:30;;;;;;;3.73;2.50;;;;;;;10.00;68.54;97520.53;6219169;28;20324;-42
2022/11/05 09:32:32;;;;;;;4.23;2.43;;;;;;;10.19;68.62;97511.16;6218011;28;20234;-41
2022/11/05 09:35:37;;;;;;;4.63;2.50;;;;;;;10.12;68.54;97508.19;6220006;28;20349;-41
2022/11/05 09:38:40;;;;;;;5.53;2.80;;;;;;;10.09;68.84;97523.41;6218330;28;20234;-42
2022/11/05 09:41:43;;;;;;;3.33;2.07;;;;;;;10.14;69.21;97519.44;6221837;28;20234;-43
2022/11/05 09:44:50;;;;;;;4.20;2.90;;;;;;;10.14;68.30;97531.78;6218378;28;20317;-42
2022/11/05 09:48:07;;;;;;;4.07;2.90;;;;;;;10.15;68.81;97525.56;6226370;28;20277;-42
2022/11/05 09:51:13;;;;;;;4.63;2.73;;;;;;;10.05;69.78;97514.06;6267741;28;20234;-41
2022/11/05 09:54:27;;;;;;;7.40;3.07;;;;;;;10.06;69.79;97534.22;6269323;28;20573;-42
2022/11/05 09:57:59;;;;;;;3.10;2.57;;;;;;;10.13;70.55;97540.66;6266236;28;20348;-41
2022/11/05 10:01:06;;;;;;;2.40;2.20;;;;;;;10.03;69.31;97542.34;6261720;28;20232;-41
2022/11/05 10:04:15;;;;;;;3.70;2.77;;;;;;;10.03;70.36;97540.56;6268486;28;20323;-41
2022/11/05 10:07:22;;;;;;;4.27;2.97;;;;;;;9.92;70.19;97540.56;6267161;28;20248;-42
2022/11/05 10:10:42;;;;;;;4.53;3.83;;;;;;;9.83;70.50;97557.13;6265526;28;20241;-41
2022/11/05 10:13:52;;;;;;;4.63;3.40;;;;;;;9.90;71.41;97553.03;6268714;28;20630;-42
2022/11/05 10:17:04;;;;;;;4.47;3.53;;;;;;;9.98;70.79;97562.00;6249867;28;20235;-42
2022/11/05 10:20:30;;;;;;;5.47;3.03;;;;;;;10.28;70.13;97556.09;6265965;28;20233;-43
2022/11/05 10:23:32;;;;;;;3.43;3.13;;;;;;;10.38;69.00;97564.13;6265669;28;20334;-42
2022/11/05 10:26:34;;;;;;;5.63;3.63;;;;;;;10.50;69.45;97563.09;6266972;28;20600;-41
2022/11/05 10:29:37;;;;;;;4.27;3.23;;;;;;;10.63;69.24;97561.16;6265814;28;20273;-41
2022/11/05 10:32:41;;;;;;;7.20;3.90;;;;;;;10.50;68.76;97564.91;6266726;28;20240;-43
2022/11/05 10:35:49;;;;;;;6.03;3.77;;;;;;;10.51;69.04;97567.44;6266574;28;20238;-42
2022/11/05 10:38:56;;;;;;;7.07;3.67;;;;;;;10.53;69.75;97568.16;6265368;28;20242;-41
2022/11/05 10:42:41;;;;;;;7.90;4.27;;;;;;;10.45;69.67;97575.00;6267203;28;20666;-42
2022/11/05 10:46:12;;;;;;;5.37;3.97;;;;;;;10.15;70.71;97587.03;6266164;28;20324;-42
2022/11/05 10:49:38;;;;;;;4.30;3.87;;;;;;;9.84;71.42;97588.63;6256472;28;20340;-42
2022/11/05 10:53:05;;;;;;;7.20;4.20;;;;;;;9.78;72.26;97581.19;6266643;28;20233;-41
2022/11/05 10:56:34;;;;;;;5.30;3.57;;;;;;;9.84;71.86;97578.09;6266769;28;20245;-41
2022/11/05 10:59:36;;;;;;;4.50;3.77;;;;;;;9.83;72.15;97563.25;6265809;28;20231;-42
2022/11/05 11:02:38;;;;;;;5.77;4.10;;;;;;;9.90;71.89;97579.41;6267945;28;20267;-41
2022/11/05 11:05:41;;;;;;;5.90;3.70;;;;;;;10.06;70.62;97579.88;6264553;28;20724;-41
2022/11/05 11:08:45;;;;;;;4.83;3.70;;;;;;;10.35;70.58;97575.75;6265053;28;20224;-42
2022/11/05 11:11:58;;;;;;;6.00;4.07;;;;;;;10.48;69.48;97577.41;6265710;28;20370;-42
2022/11/05 11:15:13;;;;;;;7.83;4.40;;;;;;;10.44;69.72;97574.19;6265109;28;20237;-41
2022/11/05 11:18:29;;;;;;;6.77;4.83;;;;;;;10.55;68.85;97581.22;6265282;28;20301;-43
2022/11/05 11:21:40;;;;;;;5.53;4.40;;;;;;;10.71;69.14;97582.47;6268848;28;20582;-41
2022/11/05 11:24:52;;;;;;;6.73;4.00;;;;;;;10.89;68.68;97572.19;6264587;28;20245;-42
2022/11/05 11:28:00;;;;;;;4.50;4.00;;;;;;;10.93;68.72;97575.41;6265795;28;20598;-43
2022/11/05 11:31:10;;;;;;;7.47;5.03;;;;;;;10.71;68.63;97582.47;6264358;28;20240;-42
2022/11/05 11:34:34;;;;;;;4.70;4.17;;;;;;;10.40;69.53;97587.72;6264926;28;20233;-42
2022/11/05 11:37:40;;;;;;;5.30;4.30;;;;;;;10.22;70.58;97590.91;6264772;28;20283;-43
2022/11/05 11:40:44;;;;;;;7.53;4.67;;;;;;;9.83;72.01;97583.47;6264849;28;20600;-42
2022/11/05 11:43:46;;;;;;;5.43;3.83;;;;;;;9.66;72.77;97594.53;6265221;28;20241;-43
2022/11/05 11:46:51;;;;;;;5.03;4.47;;;;;;;9.54;73.50;97596.31;6264575;28;20709;-42
2022/11/05 11:49:58;;;;;;;5.80;4.70;;;;;;;9.42;74.55;97599.88;6265202;28;20236;-43
2022/11/05 11:53:20;;;;;;;6.77;4.73;;;;;;;9.35;73.86;97609.22;6265090;28;20245;-42
2022/11/05 11:56:22;;;;;;;5.10;4.27;;;;;;;9.30;73.83;97601.66;6263748;28;20632;-41
2022/11/05 11:59:29;;;;;;;6.33;4.63;;;;;;;9.30;74.93;97612.19;6266883;28;20254;-41
2022/11/05 12:03:16;;;;;;;5.23;4.67;;;;;;;9.21;74.96;97612.88;6264789;28;20234;-43
2022/11/05 12:06:56;;;;;;;7.63;4.40;;;;;;;9.16;74.90;97615.88;6265608;28;20602;-41
2022/11/05 12:10:20;;;;;;;7.37;5.97;;;;;;;9.16;75.68;97618.53;6265752;28;20233;-41
2022/11/05 12:13:23;;;;;;;7.07;4.80;;;;;;;9.20;75.52;97616.47;6266013;28;20249;-42
2022/11/05 12:16:39;;;;;;;5.37;4.53;;;;;;;9.15;76.25;97626.53;6264145;28;20326;-42
2022/11/05 12:20:10;;;;;;;6.13;5.23;;;;;;;9.16;76.68;97620.31;6263869;28;20786;-42
2022/11/05 12:23:42;;;;;;;9.67;5.70;;;;;;;9.18;76.38;97621.03;6265055;28;20233;-42
2022/11/05 12:27:00;;;;;;;7.77;4.87;;;;;;;9.12;76.10;97626.75;6263265;28;20244;-42
2022/11/05 12:30:09;;;;;;;7.33;5.57;;;;;;;9.09;76.80;97630.44;6266028;28;20596;-41
2022/11/05 12:33:20;;;;;;;10.40;5.63;;;;;;;9.03;77.22;97624.81;6265264;28;20241;-41
2022/11/05 12:36:41;;;;;;;5.77;4.60;;;;;;;9.00;77.68;97625.88;6264499;28;20302;-42
2022/11/05 12:40:15;;;;;;;5.33;4.83;;;;;;;8.99;77.47;97633.88;6264972;28;20234;-41
2022/11/05 12:43:29;;;;;;;5.43;4.50;;;;;;;9.00;77.82;97635.56;6264308;28;20234;-42
2022/11/05 12:47:13;;;;;;;6.50;4.93;;;;;;;9.04;77.22;97637.84;6264055;28;20604;-42
2022/11/05 12:50:23;;;;;;;8.43;5.37;;;;;;;9.06;77.91;97638.59;6150530;28;20283;-42
2022/11/05 12:53:33;;;;;;;5.97;5.10;;;;;;;9.04;78.32;97640.50;6156819;28;20227;-41
2022/11/05 12:56:43;;;;;;;5.83;5.10;;;;;;;9.03;78.42;97638.81;6269289;28;20321;-42
2022/11/05 12:59:51;;;;;;;5.87;5.27;;;;;;;9.06;78.01;97635.13;6270145;28;20261;-41
2022/11/05 13:03:18;;;;;;;6.33;5.20;;;;;;;9.06;77.99;97643.84;6268062;28;20693;-41
2022/11/05 13:06:28;;;;;;;7.47;5.50;;;;;;;9.01;78.36;97648.59;6268461;28;20291;-41
2022/11/05 13:10:03;;;;;;;7.80;5.50;;;;;;;8.95;78.11;97653.50;6267111;28;20319;-41
2022/11/05 13:13:14;;;;;;;7.43;5.43;;;;;;;8.93;78.77;97652.75;6269487;28;20333;-42
2022/11/05 13:16:36;;;;;;;7.50;5.23;;;;;;;8.99;78.90;97660.19;6272164;28;20240;-41
2022/11/05 13:19:47;;;;;;;8.37;5.43;;;;;;;9.04;78.21;97653.66;6267720;28;20227;-42
2022/11/05 13:22:59;;;;;;;5.00;4.50;;;;;;;9.08;78.43;97643.75;6269959;28;20376;-42
2022/11/05 13:26:18;;;;;;;7.83;4.90;;;;;;;9.06;78.24;97649.13;6267677;28;20393;-41
2022/11/05 13:29:31;;;;;;;5.43;4.87;;;;;;;9.08;78.21;97667.44;6269987;28;20337;-41
2022/11/05 13:32:42;;;;;;;6.80;5.43;;;;;;;9.02;79.02;97657.34;6265770;28;20777;-42
2022/11/05 13:38:58;;;;;;;6.37;5.70;;;;;;;9.00;77.72;97661.88;6270236;28;20641;-41
2022/11/05 13:39:23;;;;;;;6.20;4.80;;;;;;;8.95;79.11;97675.41;6267263;28;20250;-43
2022/11/05 13:42:54;;;;;;;6.57;5.27;;;;;;;8.91;78.96;97673.94;6266850;28;20628;-41
2022/11/05 13:46:10;;;;;;;4.83;4.33;;;;;;;8.91;78.38;97678.34;6245543;28;20265;-41
2022/11/05 13:49:35;;;;;;;5.40;4.90;;;;;;;8.90;78.81;97677.50;6265023;28;20548;-42
2022/11/05 13:53:08;;;;;;;5.23;4.53;;;;;;;8.91;78.58;97691.50;6266523;28;20597;-42
2022/11/05 13:56:29;;;;;;;5.67;4.70;;;;;;;8.93;78.15;97692.25;6265471;28;20614;-41
2022/11/05 13:59:53;;;;;;;5.87;4.63;;;;;;;8.97;78.79;97689.28;6266682;28;20829;-43
2022/11/05 14:03:00;;;;;;;5.97;5.13;;;;;;;9.01;77.80;97689.88;6268593;28;20238;-42
2022/11/05 14:06:06;;;;;;;8.17;5.00;;;;;;;9.01;78.22;97703.03;6266931;28;20641;-41
2022/11/05 14:09:10;;;;;;;5.13;4.20;;;;;;;9.00;78.87;97698.72;6266925;28;20211;-44
2022/11/05 14:12:30;;;;;;;5.90;4.57;;;;;;;9.03;78.64;97711.66;6267425;28;20648;-42
2022/11/05 14:15:32;;;;;;;6.87;4.07;;;;;;;9.07;78.26;97713.13;6265921;28;20243;-42
2022/11/05 14:18:42;;;;;;;7.50;4.10;;;;;;;9.06;77.73;97720.19;6268550;28;20310;-45
2022/11/05 14:21:48;;;;;;;7.47;4.23;;;;;;;9.04;77.32;97708.09;6264830;28;20239;-44
2022/11/05 14:25:01;;;;;;;5.80;4.33;;;;;;;9.05;77.11;97717.66;6266365;28;20226;-41
2022/11/05 14:28:48;;;;;;;5.27;4.17;;;;;;;9.04;76.43;97723.88;6270591;28;20236;-43
2022/11/05 14:31:50;;;;;;;5.07;4.57;;;;;;;8.98;77.68;97726.97;6130527;28;20255;-42
2022/11/05 14:35:16;;;;;;;6.00;5.27;;;;;;;9.00;77.23;97725.91;6128555;29;20275;-42
2022/11/05 14:38:25;;;;;;;5.87;4.40;;;;;;;9.02;77.15;97736.31;6129212;28;20231;-41
2022/11/05 14:41:29;;;;;;;4.57;4.10;;;;;;;9.02;77.76;97731.06;6131057;29;20858;-42
2022/11/05 14:44:34;;;;;;;6.27;4.63;;;;;;;9.00;78.03;97722.41;6130308;29;20236;-41
2022/11/05 14:47:41;;;;;;;5.60;4.80;;;;;;;8.94;78.09;97722.88;6129427;29;20286;-42
2022/11/05 14:50:43;;;;;;;5.50;4.40;;;;;;;8.95;78.59;97719.31;6129068;29;20254;-41
2022/11/05 14:53:46;;;;;;;5.90;4.23;;;;;;;8.93;78.35;97719.41;6125369;29;20230;-42
2022/11/05 14:56:58;;;;;;;5.03;4.50;;;;;;;8.89;78.01;97713.50;6130555;29;20239;-42
2022/11/05 15:00:01;;;;;;;5.93;4.50;;;;;;;8.88;77.92;97716.28;6125700;29;20242;-41
2022/11/05 15:03:34;;;;;;;5.43;4.60;;;;;;;8.89;78.06;97733.72;6129275;29;20234;-41
2022/11/05 15:07:04;;;;;;;5.90;3.70;;;;;;;8.91;77.42;97734.47;6254147;28;20706;-42
2022/11/05 15:10:11;;;;;;;6.43;3.90;;;;;;;8.92;77.84;97740.56;6252457;28;20316;-42
2022/11/05 15:13:53;;;;;;;4.23;3.77;;;;;;;8.91;77.44;97745.00;6265440;28;20248;-41
2022/11/05 15:17:07;;;;;;;6.47;4.10;;;;;;;8.92;77.81;97748.47;6262255;28;20274;-41
2022/11/05 15:20:16;;;;;;;5.47;4.20;;;;;;;8.91;77.91;97763.41;6264237;28;20234;-41
2022/11/05 15:23:24;;;;;;;3.90;3.60;;;;;;;8.92;77.34;97751.09;6266347;28;20689;-42
2022/11/05 15:26:59;;;;;;;3.50;3.17;;;;;;;8.93;77.78;97760.69;6250866;28;20237;-42
2022/11/05 15:30:14;;;;;;;4.30;3.80;;;;;;;8.91;77.55;97773.09;6180635;28;20223;-41